KJAS/JAS METAR and TAF weather

Enter ICAO airport designator
Station Type Date Time Source
KJAS METAR 2022/06/28 08:15 UTC NOAA

KJAS 280815Z AUTO 03003KT 10SM CLR 25/21 A3008 RMK AO2


Station Type Date Time Source
KJAS Decoded METAR 2022/06/28 08:15 UTC NOAA

Jasper, Jasper County-Bell Field Airport, TX, United States (KJAS) 30-53-08N 094-02-05W
Jun 28, 2022 - 04:15 AM EDT / 2022.06.28 0815 UTC
Wind: from the NNE (030 degrees) at 3 MPH (3 KT):0
Visibility: 10 mile(s):0
Sky conditions: clear
Temperature: 77 F (25 C)
Dew Point: 69 F (21 C)
Relative Humidity: 78%
Pressure (altimeter): 30.08 in. Hg (1018 hPa)
ob: KJAS 280815Z AUTO 03003KT 10SM CLR 25/21 A3008 RMK AO2
cycle: 8

Station Type Date Time Source
KJAS TAF UTC NOAA

Error!

Example: see airport list